Germantown, Maryland
Current Conditions -  °F | °C
As of 9:35 AM on Thursday 29 Jan 2015 (Local Time) from KGAI Reporting Station
Clear Clear  
Wind Chill: -6°   Ceiling: Unl
Heat Index: -3°   Visibility: 10mi
Dew Point: -14°   Wind: 5mph
Humidity: 43%   Direction: 140°SE
Pressure: 30.31"   Gusts: NA
Location:  39.18°N, 77.27°W
Report Text: KGAI 291435Z 14004KT 10SM CLR M03/M14 A3031 RMK AO1
Loading
Personal Weather Stations






























Interactive Weather Map New forecast layout! Learn more

10-Day Weather Forecast

Advertisements
Track Severe Weather on mobile